createdAt,value
2022-11-26T00:01:22.255Z,66.42
2022-11-26T00:03:49.722Z,66.20
2022-11-26T00:06:32.151Z,66.47
2022-11-26T00:09:00.094Z,66.29
2022-11-26T00:11:27.687Z,66.08
2022-11-26T00:13:54.845Z,66.17
2022-11-26T00:16:21.939Z,65.79
2022-11-26T00:18:49.092Z,65.70
2022-11-26T00:21:23.828Z,65.32
2022-11-26T00:23:52.542Z,65.23
2022-11-26T00:26:24.965Z,64.80
2022-11-26T00:28:56.023Z,64.61
2022-11-26T00:31:24.362Z,64.54
2022-11-26T00:33:51.735Z,64.52
2022-11-26T00:36:27.506Z,64.30
2022-11-26T00:38:59.202Z,64.32
2022-11-26T00:41:31.175Z,64.59
2022-11-26T00:43:58.788Z,64.14
2022-11-26T00:46:25.954Z,63.64
2022-11-26T00:48:53.176Z,63.80
2022-11-26T00:51:27.585Z,63.37
2022-11-26T00:54:00.287Z,63.20
2022-11-26T00:56:27.791Z,63.08
2022-11-26T00:58:55.077Z,63.21
2022-11-26T01:01:28.837Z,62.87
2022-11-26T01:03:56.161Z,62.58
2022-11-26T01:06:37.030Z,62.73
2022-11-26T01:09:13.820Z,62.60
2022-11-26T01:11:40.897Z,62.78
2022-11-26T01:14:17.121Z,62.78
2022-11-26T01:16:46.406Z,62.84
2022-11-26T01:19:16.017Z,62.84
2022-11-26T01:21:43.660Z,62.89
2022-11-26T01:24:11.092Z,63.02
2022-11-26T01:26:45.073Z,62.87
2022-11-26T01:29:18.638Z,63.20
2022-11-26T01:31:46.179Z,63.31
2022-11-26T01:34:13.736Z,63.18
2022-11-26T01:36:42.235Z,63.36
2022-11-26T01:39:18.155Z,62.78
2022-11-26T01:41:59.055Z,62.70
2022-11-26T01:44:31.008Z,62.73
2022-11-26T01:46:59.542Z,63.09
2022-11-26T01:49:33.300Z,62.79
2022-11-26T01:52:12.142Z,62.26
2022-11-26T01:54:42.718Z,62.40
2022-11-26T01:57:17.962Z,62.64
2022-11-26T01:59:53.260Z,62.43
2022-11-26T02:02:23.398Z,62.26
2022-11-26T02:05:18.145Z,62.08
2022-11-26T02:07:46.294Z,61.75
2022-11-26T02:10:14.519Z,61.83
2022-11-26T02:12:43.091Z,61.88
2022-11-26T02:15:11.488Z,61.91
2022-11-26T02:18:14.035Z,61.89
2022-11-26T02:20:55.454Z,62.26
2022-11-26T02:24:05.153Z,61.99
2022-11-26T02:26:44.704Z,61.87
2022-11-26T02:29:36.331Z,61.57
2022-11-26T02:32:14.226Z,62.06
2022-11-26T02:34:49.678Z,62.03
2022-11-26T02:37:37.723Z,62.06
2022-11-26T02:40:08.221Z,62.67
2022-11-26T02:42:36.366Z,62.12
2022-11-26T02:45:10.183Z,62.51
2022-11-26T02:47:41.542Z,61.97
2022-11-26T02:50:16.542Z,62.11
2022-11-26T02:52:44.968Z,61.90
2022-11-26T02:55:15.372Z,62.57
2022-11-26T02:57:48.963Z,62.69
2022-11-26T03:00:18.015Z,62.48
2022-11-26T03:02:59.845Z,62.79
2022-11-26T03:05:32.837Z,62.69
2022-11-26T03:08:00.935Z,62.83
2022-11-26T03:10:29.416Z,62.62
2022-11-26T03:12:56.776Z,62.97
2022-11-26T03:15:24.203Z,63.03
2022-11-26T03:17:51.664Z,62.89
2022-11-26T03:20:18.866Z,63.47
2022-11-26T03:22:46.185Z,62.79
2022-11-26T03:25:13.592Z,62.78
2022-11-26T03:27:40.640Z,63.10
2022-11-26T03:30:08.748Z,63.19
2022-11-26T03:32:36.702Z,63.72
2022-11-26T03:35:04.656Z,63.43
2022-11-26T03:37:32.066Z,63.54
2022-11-26T03:39:59.060Z,63.83
2022-11-26T03:42:26.104Z,64.02
2022-11-26T03:44:53.238Z,64.07
2022-11-26T03:47:20.260Z,63.92
2022-11-26T03:49:47.293Z,63.52
2022-11-26T03:52:14.483Z,63.87
2022-11-26T03:54:41.644Z,64.66
2022-11-26T03:57:08.682Z,64.69
2022-11-26T03:59:35.793Z,63.82
2022-11-26T04:02:02.982Z,63.89
2022-11-26T04:04:30.164Z,63.89
2022-11-26T04:06:58.484Z,63.96
2022-11-26T04:09:25.571Z,63.51
2022-11-26T04:11:52.674Z,63.03
2022-11-26T04:14:19.777Z,62.78
2022-11-26T04:16:47.233Z,62.26
2022-11-26T04:19:14.452Z,62.67
2022-11-26T04:21:41.596Z,62.42
2022-11-26T04:24:08.920Z,62.69
2022-11-26T04:26:36.010Z,62.75
2022-11-26T04:29:03.757Z,62.60
2022-11-26T04:31:31.105Z,63.04
2022-11-26T04:33:58.263Z,62.71
2022-11-26T04:36:25.518Z,63.11
2022-11-26T04:38:52.563Z,63.31
2022-11-26T04:41:19.611Z,64.15
2022-11-26T04:43:46.749Z,63.74
2022-11-26T04:46:13.862Z,63.69
2022-11-26T04:48:41.094Z,63.35
2022-11-26T04:51:08.125Z,63.76
2022-11-26T04:53:35.214Z,64.10
2022-11-26T04:56:02.252Z,62.82
2022-11-26T04:58:29.493Z,62.58
2022-11-26T05:00:56.547Z,63.25
2022-11-26T05:03:23.706Z,63.79
2022-11-26T05:05:50.818Z,63.92
2022-11-26T05:08:17.937Z,64.01
2022-11-26T05:10:45.080Z,63.79
2022-11-26T05:13:12.336Z,63.84
2022-11-26T05:15:39.359Z,63.83
2022-11-26T05:18:06.469Z,64.48
2022-11-26T05:20:33.501Z,65.08
2022-11-26T05:23:00.584Z,64.48
2022-11-26T05:25:27.617Z,63.77
2022-11-26T05:27:54.755Z,63.67
2022-11-26T05:30:22.078Z,64.45
2022-11-26T05:32:49.148Z,64.13
2022-11-26T05:35:16.291Z,64.53
2022-11-26T05:37:43.293Z,64.42
2022-11-26T05:40:11.620Z,63.77
2022-11-26T05:42:39.435Z,64.04
2022-11-26T05:45:07.529Z,64.24
2022-11-26T05:47:34.614Z,64.36
2022-11-26T05:50:02.179Z,64.11
2022-11-26T05:52:29.369Z,63.98
2022-11-26T05:54:56.395Z,64.40
2022-11-26T05:57:23.453Z,63.76
2022-11-26T05:59:50.702Z,63.57
2022-11-26T06:02:18.220Z,62.98
2022-11-26T06:04:45.304Z,62.94
2022-11-26T06:07:12.489Z,62.84
2022-11-26T06:09:39.813Z,63.22
2022-11-26T06:12:07.246Z,63.26
2022-11-26T06:14:34.343Z,63.65
2022-11-26T06:17:01.390Z,64.39
2022-11-26T06:19:28.568Z,64.22
2022-11-26T06:21:55.620Z,64.01
2022-11-26T06:24:22.651Z,64.16
2022-11-26T06:26:49.865Z,64.55
2022-11-26T06:29:17.168Z,64.62
2022-11-26T06:31:44.316Z,64.48
2022-11-26T06:34:11.508Z,63.71
2022-11-26T06:36:38.618Z,64.02
2022-11-26T06:39:05.818Z,63.97
2022-11-26T06:41:33.224Z,63.64
2022-11-26T06:44:00.701Z,63.96
2022-11-26T06:46:28.131Z,64.00
2022-11-26T06:48:55.334Z,63.80
2022-11-26T06:51:22.536Z,64.67
2022-11-26T06:53:49.688Z,64.74
2022-11-26T06:56:19.126Z,64.95
2022-11-26T06:58:48.358Z,64.80
2022-11-26T07:01:19.752Z,65.53
2022-11-26T07:03:47.723Z,65.39
2022-11-26T07:06:25.060Z,64.61
2022-11-26T07:08:55.321Z,63.89
2022-11-26T07:11:24.249Z,64.14
2022-11-26T07:13:52.179Z,64.35
2022-11-26T07:16:19.586Z,64.34
2022-11-26T07:18:52.886Z,64.05
2022-11-26T07:21:23.413Z,64.18
2022-11-26T07:23:51.412Z,64.63
2022-11-26T07:26:21.950Z,64.60
2022-11-26T07:28:49.662Z,64.14
2022-11-26T07:31:20.334Z,63.71
2022-11-26T07:33:47.914Z,63.92
2022-11-26T07:36:22.387Z,64.20
2022-11-26T07:38:50.169Z,63.83
2022-11-26T07:41:19.734Z,63.07
2022-11-26T07:43:47.554Z,63.38
2022-11-26T07:46:19.707Z,63.82
2022-11-26T07:48:47.337Z,63.49
2022-11-26T07:51:27.442Z,63.20
2022-11-26T07:53:56.911Z,62.82
2022-11-26T07:56:23.943Z,62.98
2022-11-26T07:58:51.394Z,62.86
2022-11-26T08:01:24.266Z,62.46
2022-11-26T08:03:51.892Z,61.30
2022-11-26T08:06:23.602Z,61.73
2022-11-26T08:08:51.757Z,61.81
2022-11-26T08:11:25.679Z,62.33
2022-11-26T08:13:59.290Z,61.48
2022-11-26T08:16:28.870Z,60.90
2022-11-26T08:19:06.069Z,60.85
2022-11-26T08:21:33.915Z,60.72
2022-11-26T08:24:01.167Z,60.45
2022-11-26T08:26:34.697Z,60.74
2022-11-26T08:29:04.722Z,61.03
2022-11-26T08:31:32.203Z,60.68
2022-11-26T08:34:00.464Z,59.98
2022-11-26T08:36:30.149Z,60.18
2022-11-26T08:38:58.771Z,59.74
2022-11-26T08:41:26.202Z,59.84
2022-11-26T08:44:08.911Z,60.36
2022-11-26T08:46:41.579Z,60.34
2022-11-26T08:49:12.442Z,59.98
2022-11-26T08:51:39.594Z,59.83
2022-11-26T08:54:07.113Z,60.09
2022-11-26T08:56:34.689Z,60.10
2022-11-26T08:59:01.989Z,60.29
2022-11-26T09:01:32.730Z,60.88
2022-11-26T09:04:02.960Z,60.86
2022-11-26T09:06:33.297Z,60.92
2022-11-26T09:09:13.969Z,60.39
2022-11-26T09:11:57.852Z,59.62
2022-11-26T09:14:31.406Z,59.00
2022-11-26T09:16:58.967Z,59.67
2022-11-26T09:19:28.200Z,59.33
2022-11-26T09:21:55.770Z,59.29
2022-11-26T09:24:23.224Z,59.60
2022-11-26T09:26:50.921Z,60.14
2022-11-26T09:29:21.943Z,59.17
2022-11-26T09:32:21.533Z,58.20
2022-11-26T09:34:37.965Z,59.02
2022-11-26T09:37:05.444Z,59.02
2022-11-26T09:39:32.759Z,58.77
2022-11-26T09:42:14.016Z,57.99
2022-11-26T09:45:12.726Z,58.45
2022-11-26T09:47:49.082Z,58.19
2022-11-26T09:50:16.255Z,56.92
2022-11-26T09:53:25.723Z,55.82
2022-11-26T09:55:56.054Z,54.88
2022-11-26T09:58:40.665Z,55.62
2022-11-26T10:01:21.022Z,55.44
2022-11-26T10:03:48.939Z,54.97
2022-11-26T10:06:44.128Z,54.06
2022-11-26T10:09:22.661Z,53.96
2022-11-26T10:12:25.584Z,53.34
2022-11-26T10:15:17.411Z,53.02
2022-11-26T10:17:53.415Z,53.88
2022-11-26T10:20:58.188Z,53.78
2022-11-26T10:24:10.071Z,53.74
2022-11-26T10:26:39.799Z,54.40
2022-11-26T10:29:39.442Z,55.49
2022-11-26T10:32:26.116Z,54.20
2022-11-26T10:34:57.578Z,55.05
2022-11-26T10:37:27.182Z,54.54
2022-11-26T10:40:26.166Z,55.07
2022-11-26T10:43:12.524Z,55.35
2022-11-26T10:45:43.808Z,55.78
2022-11-26T10:48:34.328Z,55.74
2022-11-26T10:51:16.630Z,55.78
2022-11-26T10:53:53.024Z,55.36
2022-11-26T10:56:44.014Z,55.33
2022-11-26T10:59:31.638Z,56.10
2022-11-26T11:02:31.314Z,54.96
2022-11-26T11:05:03.545Z,55.02
2022-11-26T11:07:47.285Z,54.35
2022-11-26T11:10:21.949Z,54.18
2022-11-26T11:13:01.039Z,53.84
2022-11-26T11:15:35.535Z,53.82
2022-11-26T11:18:17.681Z,54.03
2022-11-26T11:21:05.170Z,54.27
2022-11-26T11:24:06.447Z,54.97
2022-11-26T11:26:25.901Z,54.97
2022-11-26T11:28:55.537Z,54.52
2022-11-26T11:31:26.290Z,53.95
2022-11-26T11:34:17.592Z,53.52
2022-11-26T11:36:58.560Z,53.38
2022-11-26T11:39:35.372Z,53.43
2022-11-26T11:42:07.796Z,53.45
2022-11-26T11:44:38.682Z,51.98
2022-11-26T11:47:26.968Z,53.00
2022-11-26T11:50:02.989Z,52.94
2022-11-26T11:52:51.797Z,52.71
2022-11-26T11:55:50.063Z,52.09
2022-11-26T11:58:41.993Z,51.50
2022-11-26T12:01:48.548Z,52.69
2022-11-26T12:05:18.640Z,53.01
2022-11-26T12:08:16.628Z,53.76
2022-11-26T12:11:05.822Z,54.50
2022-11-26T12:13:45.737Z,53.85
2022-11-26T12:16:15.191Z,54.13
2022-11-26T12:18:53.568Z,54.14
2022-11-26T12:21:55.252Z,53.38
2022-11-26T12:25:11.207Z,53.94
2022-11-26T12:27:45.345Z,53.06
2022-11-26T12:30:31.671Z,52.58
2022-11-26T12:33:36.402Z,52.65
2022-11-26T12:36:27.923Z,52.86
2022-11-26T12:39:00.148Z,53.13
2022-11-26T12:42:08.199Z,53.12
2022-11-26T12:44:42.028Z,54.27
2022-11-26T12:47:27.935Z,53.79
2022-11-26T12:50:15.950Z,53.74
2022-11-26T12:53:07.659Z,53.60
2022-11-26T12:55:53.542Z,53.45
2022-11-26T12:58:39.243Z,53.96
2022-11-26T13:01:06.414Z,53.27
2022-11-26T13:03:33.711Z,52.77
2022-11-26T13:06:12.760Z,52.24
2022-11-26T13:08:51.769Z,52.42
2022-11-26T13:11:26.994Z,52.90
2022-11-26T13:14:06.808Z,52.74
2022-11-26T13:16:39.124Z,52.64
2022-11-26T13:19:33.774Z,53.01
2022-11-26T13:22:26.687Z,52.47
2022-11-26T13:25:00.681Z,52.71
2022-11-26T13:28:24.054Z,53.44
2022-11-26T13:31:11.460Z,53.85
2022-11-26T13:33:59.621Z,53.89
2022-11-26T13:37:03.566Z,54.04
2022-11-26T13:40:29.113Z,54.22
2022-11-26T13:43:37.781Z,54.03
2022-11-26T13:46:24.625Z,53.64
2022-11-26T13:49:17.527Z,52.94
2022-11-26T13:51:58.649Z,52.61
2022-11-26T13:54:30.163Z,52.85
2022-11-26T13:57:08.583Z,52.29
2022-11-26T13:59:36.805Z,51.92
2022-11-26T14:02:35.422Z,52.02
2022-11-26T14:05:07.674Z,52.40
2022-11-26T14:07:34.941Z,52.78
2022-11-26T14:10:05.732Z,52.92
2022-11-26T14:13:03.923Z,52.42
2022-11-26T14:15:43.105Z,52.29
2022-11-26T14:18:16.321Z,51.17
2022-11-26T14:21:01.340Z,51.17
2022-11-26T14:23:50.304Z,51.35
2022-11-26T14:26:31.583Z,51.21
2022-11-26T14:29:07.985Z,51.02
2022-11-26T14:31:38.774Z,50.45
2022-11-26T14:34:24.989Z,50.25
2022-11-26T14:37:01.300Z,50.39
2022-11-26T14:39:31.695Z,50.41
2022-11-26T14:42:05.694Z,50.60
2022-11-26T14:44:34.548Z,50.54
2022-11-26T14:47:14.848Z,51.08
2022-11-26T14:49:54.412Z,51.37
2022-11-26T14:52:30.257Z,51.59
2022-11-26T14:55:01.617Z,51.61
2022-11-26T14:57:55.194Z,52.12
2022-11-26T15:00:30.016Z,52.81
2022-11-26T15:02:58.035Z,52.91
2022-11-26T15:05:31.761Z,53.35
2022-11-26T15:08:17.592Z,53.65
2022-11-26T15:11:02.015Z,53.84
2022-11-26T15:13:41.376Z,54.52
2022-11-26T15:16:31.343Z,54.87
2022-11-26T15:18:59.305Z,55.42
2022-11-26T15:21:28.451Z,55.86
2022-11-26T15:24:00.738Z,56.02
2022-11-26T15:26:35.657Z,56.18
2022-11-26T15:29:03.626Z,56.18
2022-11-26T15:31:41.967Z,56.51
2022-11-26T15:34:15.930Z,57.12
2022-11-26T15:36:43.102Z,57.40
2022-11-26T15:39:33.513Z,57.99
2022-11-26T15:42:23.307Z,58.19
2022-11-26T15:44:50.500Z,58.21
2022-11-26T15:47:23.047Z,58.27
2022-11-26T15:49:56.836Z,58.15
2022-11-26T15:52:30.769Z,58.11
2022-11-26T15:55:15.659Z,58.16
2022-11-26T15:57:43.943Z,58.37
2022-11-26T16:00:33.652Z,58.09
2022-11-26T16:03:01.282Z,57.91
2022-11-26T16:05:35.344Z,57.61
2022-11-26T16:08:26.347Z,56.85
2022-11-26T16:11:03.213Z,56.95
2022-11-26T16:13:32.391Z,56.24
2022-11-26T16:16:05.111Z,56.12
2022-11-26T16:18:41.227Z,56.22
2022-11-26T16:21:24.520Z,55.59
2022-11-26T16:23:59.435Z,55.38
2022-11-26T16:26:27.432Z,55.68
2022-11-26T16:28:54.886Z,55.34
2022-11-26T16:31:23.329Z,55.13
2022-11-26T16:33:50.641Z,55.13
2022-11-26T16:36:32.584Z,54.94
2022-11-26T16:38:59.576Z,55.38
2022-11-26T16:41:27.019Z,55.10
2022-11-26T16:43:54.041Z,54.76
2022-11-26T16:46:23.737Z,54.96
2022-11-26T16:48:52.277Z,55.15
2022-11-26T16:51:20.895Z,55.03
2022-11-26T16:53:48.028Z,55.02
2022-11-26T16:56:23.252Z,54.53
2022-11-26T16:58:51.165Z,54.58
2022-11-26T17:01:18.402Z,54.66
2022-11-26T17:03:45.660Z,54.90
2022-11-26T17:06:39.496Z,54.91
2022-11-26T17:09:06.731Z,55.06
2022-11-26T17:11:33.728Z,55.05
2022-11-26T17:14:00.701Z,55.06
2022-11-26T17:16:29.186Z,54.84
2022-11-26T17:18:56.361Z,55.17
2022-11-26T17:21:23.641Z,55.35
2022-11-26T17:23:50.748Z,55.80
2022-11-26T17:26:23.670Z,55.44
2022-11-26T17:28:51.483Z,54.48
2022-11-26T17:31:18.967Z,53.98
2022-11-26T17:33:46.172Z,54.59
2022-11-26T17:36:21.708Z,54.65
2022-11-26T17:38:49.637Z,54.31
2022-11-26T17:41:17.084Z,54.59
2022-11-26T17:43:44.442Z,54.82
2022-11-26T17:46:19.239Z,55.30
2022-11-26T17:48:47.961Z,55.33
2022-11-26T17:51:15.458Z,55.53
2022-11-26T17:53:43.213Z,55.88
2022-11-26T17:56:20.430Z,55.77
2022-11-26T17:58:48.419Z,55.75
2022-11-26T18:01:17.128Z,55.75
2022-11-26T18:03:45.349Z,56.00
2022-11-26T18:07:06.170Z,55.45
2022-11-26T18:09:34.404Z,55.28
2022-11-26T18:12:01.914Z,55.77
2022-11-26T18:14:29.148Z,55.81
2022-11-26T18:16:56.274Z,56.25
2022-11-26T18:19:24.209Z,56.36
2022-11-26T18:21:51.899Z,56.85
2022-11-26T18:24:18.993Z,57.23
2022-11-26T18:26:46.611Z,57.14
2022-11-26T18:29:13.972Z,57.37
2022-11-26T18:31:41.110Z,57.63
2022-11-26T18:34:08.712Z,58.00
2022-11-26T18:36:35.813Z,57.95
2022-11-26T18:39:04.850Z,57.96
2022-11-26T18:41:32.786Z,58.14
2022-11-26T18:44:01.911Z,57.86
2022-11-26T18:46:29.117Z,58.10
2022-11-26T18:48:57.872Z,58.24
2022-11-26T18:51:25.212Z,57.65
2022-11-26T18:53:52.911Z,57.56
2022-11-26T18:56:25.625Z,57.15
2022-11-26T18:58:53.281Z,57.24
2022-11-26T19:01:26.512Z,57.28
2022-11-26T19:03:54.582Z,57.86
2022-11-26T19:06:28.861Z,58.09
2022-11-26T19:09:04.927Z,57.85
2022-11-26T19:11:33.831Z,57.96
2022-11-26T19:14:01.383Z,57.87
2022-11-26T19:16:29.014Z,57.97
2022-11-26T19:18:56.167Z,58.04
2022-11-26T19:21:27.389Z,58.24
2022-11-26T19:23:57.006Z,57.99
2022-11-26T19:26:24.576Z,57.93
2022-11-26T19:28:52.323Z,57.90
2022-11-26T19:31:24.021Z,57.57
2022-11-26T19:33:57.944Z,57.57
2022-11-26T19:36:25.146Z,57.30
2022-11-26T19:38:57.864Z,57.50
2022-11-26T19:41:26.273Z,57.32
2022-11-26T19:43:54.398Z,57.53
2022-11-26T19:46:28.196Z,57.46
2022-11-26T19:48:55.877Z,57.71
2022-11-26T19:51:26.329Z,57.99
2022-11-26T19:53:55.790Z,58.13
2022-11-26T19:56:30.461Z,58.25
2022-11-26T19:58:58.706Z,58.36
2022-11-26T20:01:30.025Z,58.50
2022-11-26T20:04:06.159Z,58.80
2022-11-26T20:06:35.333Z,58.59
2022-11-26T20:09:09.643Z,58.03
2022-11-26T20:11:38.705Z,57.89
2022-11-26T20:14:10.748Z,57.56
2022-11-26T20:16:41.313Z,58.20
2022-11-26T20:19:09.848Z,58.17
2022-11-26T20:21:37.512Z,57.69
2022-11-26T20:24:10.985Z,57.78
2022-11-26T20:26:42.119Z,57.83
2022-11-26T20:29:12.784Z,57.80
2022-11-26T20:31:49.907Z,58.28
2022-11-26T20:34:24.421Z,58.70
2022-11-26T20:36:52.131Z,59.11
2022-11-26T20:39:23.243Z,58.96
2022-11-26T20:41:50.721Z,59.07
2022-11-26T20:44:18.252Z,59.03
2022-11-26T20:46:45.423Z,58.61
2022-11-26T20:49:12.536Z,58.94
2022-11-26T20:51:39.794Z,59.11
2022-11-26T20:54:07.232Z,59.17
2022-11-26T20:56:37.765Z,59.14
2022-11-26T20:59:04.848Z,59.31
2022-11-26T21:01:32.619Z,59.20
2022-11-26T21:04:01.294Z,59.51
2022-11-26T21:06:30.603Z,59.74
2022-11-26T21:09:04.436Z,59.67
2022-11-26T21:11:31.954Z,59.45
2022-11-26T21:14:01.699Z,59.29
2022-11-26T21:16:29.373Z,59.31
2022-11-26T21:18:57.400Z,58.97
2022-11-26T21:21:26.307Z,58.58
2022-11-26T21:23:54.744Z,59.06
2022-11-26T21:26:25.338Z,59.54
2022-11-26T21:28:58.022Z,60.25
2022-11-26T21:31:27.308Z,61.03
2022-11-26T21:34:06.684Z,61.10
2022-11-26T21:36:36.309Z,61.36
2022-11-26T21:39:04.524Z,61.39
2022-11-26T21:41:33.585Z,61.21
2022-11-26T21:44:03.772Z,61.39
2022-11-26T21:46:37.572Z,61.38
2022-11-26T21:49:07.110Z,61.48
2022-11-26T21:51:34.194Z,61.72
2022-11-26T21:54:01.269Z,61.63
2022-11-26T21:56:31.507Z,61.53
2022-11-26T21:59:00.809Z,61.49
2022-11-26T22:01:34.556Z,61.55
2022-11-26T22:04:08.047Z,61.28
2022-11-26T22:06:36.511Z,61.12
2022-11-26T22:09:04.696Z,61.17
2022-11-26T22:11:36.112Z,61.25
2022-11-26T22:14:04.527Z,61.02
2022-11-26T22:16:32.582Z,60.94
2022-11-26T22:19:01.017Z,61.25
2022-11-26T22:21:39.138Z,61.30
2022-11-26T22:24:11.089Z,61.63
2022-11-26T22:26:38.418Z,61.68
2022-11-26T22:29:06.796Z,61.32
2022-11-26T22:31:38.903Z,61.19
2022-11-26T22:34:14.544Z,60.96
2022-11-26T22:36:43.920Z,60.90
2022-11-26T22:39:15.077Z,60.78
2022-11-26T22:41:43.800Z,60.63
2022-11-26T22:44:12.741Z,60.74
2022-11-26T22:46:39.946Z,60.64
2022-11-26T22:49:07.854Z,60.47
2022-11-26T22:51:35.703Z,60.18
2022-11-26T22:54:07.175Z,60.49
2022-11-26T22:56:47.558Z,59.74
2022-11-26T22:59:15.056Z,58.93
2022-11-26T23:01:42.238Z,58.44
2022-11-26T23:04:11.237Z,58.15
2022-11-26T23:06:39.930Z,57.79
2022-11-26T23:09:09.302Z,57.75
2022-11-26T23:11:39.231Z,58.19
2022-11-26T23:14:09.289Z,58.29
2022-11-26T23:16:38.311Z,58.61
2022-11-26T23:19:06.353Z,57.86
2022-11-26T23:21:40.085Z,57.70
2022-11-26T23:24:08.006Z,58.42
2022-11-26T23:26:37.763Z,58.55
2022-11-26T23:29:06.492Z,58.64
2022-11-26T23:31:41.940Z,58.13
2022-11-26T23:34:10.095Z,57.88
2022-11-26T23:36:38.122Z,57.87
2022-11-26T23:39:07.575Z,57.75
2022-11-26T23:41:34.761Z,57.99
2022-11-26T23:44:01.978Z,58.04
2022-11-26T23:46:31.928Z,58.02
2022-11-26T23:48:59.110Z,58.47
2022-11-26T23:51:30.336Z,58.11
2022-11-26T23:53:57.830Z,58.24
2022-11-26T23:56:32.347Z,58.57
2022-11-26T23:59:02.988Z,58.56
